createdAt,value
2022-12-02T00:01:02.420Z,12.10
2022-12-02T00:03:50.446Z,10.77
2022-12-02T00:06:38.379Z,11.23
2022-12-02T00:09:34.477Z,11.10
2022-12-02T00:12:27.867Z,9.02
2022-12-02T00:15:36.433Z,13.05
2022-12-02T00:18:26.305Z,11.35
2022-12-02T00:21:14.301Z,13.98
2022-12-02T00:24:02.269Z,11.93
2022-12-02T00:26:50.047Z,9.13
2022-12-02T00:29:37.889Z,13.63
2022-12-02T00:32:25.575Z,10.32
2022-12-02T00:35:13.542Z,12.13
2022-12-02T00:38:01.366Z,13.90
2022-12-02T00:40:49.322Z,10.52
2022-12-02T00:44:14.903Z,10.82
2022-12-02T00:47:02.767Z,11.15
2022-12-02T00:49:50.957Z,9.50
2022-12-02T00:52:39.397Z,9.95
2022-12-02T00:55:27.739Z,12.77
2022-12-02T00:58:15.922Z,12.57
2022-12-02T01:01:04.864Z,11.02
2022-12-02T01:03:53.171Z,11.75
2022-12-02T01:06:40.975Z,10.00
2022-12-02T01:09:29.900Z,11.48
2022-12-02T01:12:17.655Z,11.82
2022-12-02T01:15:06.080Z,11.07
2022-12-02T01:17:54.202Z,9.75
2022-12-02T01:20:42.149Z,11.45
2022-12-02T01:23:29.864Z,11.38
2022-12-02T01:26:17.957Z,11.80
2022-12-02T01:29:05.917Z,9.85
2022-12-02T01:31:55.889Z,11.10
2022-12-02T01:34:44.089Z,9.10
2022-12-02T01:37:32.188Z,8.50
2022-12-02T01:40:20.883Z,9.80
2022-12-02T01:43:13.315Z,11.05
2022-12-02T01:46:01.866Z,10.45
2022-12-02T01:48:51.409Z,9.77
2022-12-02T01:51:39.312Z,8.93
2022-12-02T01:54:29.917Z,10.70
2022-12-02T01:57:19.750Z,11.20
2022-12-02T02:00:08.583Z,11.00
2022-12-02T02:03:02.603Z,6.82
2022-12-02T02:05:51.942Z,8.95
2022-12-02T02:08:56.553Z,8.20
2022-12-02T02:12:26.931Z,8.82
2022-12-02T02:15:47.004Z,8.70
2022-12-02T02:18:41.357Z,9.90
2022-12-02T02:21:37.935Z,8.45
2022-12-02T02:24:34.889Z,8.60
2022-12-02T02:27:29.992Z,10.45
2022-12-02T02:30:26.685Z,7.80
2022-12-02T02:33:20.920Z,9.45
2022-12-02T02:36:12.747Z,10.43
2022-12-02T02:39:07.933Z,11.25
2022-12-02T02:42:04.808Z,9.93
2022-12-02T02:45:02.356Z,10.13
2022-12-02T02:47:57.990Z,9.40
2022-12-02T02:50:56.269Z,11.30
2022-12-02T02:53:59.768Z,10.98
2022-12-02T02:57:01.106Z,9.82
2022-12-02T03:03:11.573Z,10.50
2022-12-02T03:06:13.113Z,10.57
2022-12-02T03:09:18.273Z,11.20
2022-12-02T03:12:13.441Z,11.38
2022-12-02T03:15:15.811Z,11.40
2022-12-02T03:18:18.575Z,10.32
2022-12-02T03:21:21.155Z,13.15
2022-12-02T03:24:15.977Z,13.20
2022-12-02T03:27:30.744Z,16.20
2022-12-02T03:30:27.228Z,13.80
2022-12-02T03:33:33.357Z,11.50
2022-12-02T03:36:38.863Z,14.00
2022-12-02T03:39:39.023Z,15.07
2022-12-02T03:42:35.245Z,17.52
2022-12-02T03:45:23.142Z,13.43
2022-12-02T03:48:12.104Z,16.05
2022-12-02T03:50:59.711Z,15.82
2022-12-02T03:53:47.623Z,12.70
2022-12-02T03:56:39.616Z,13.40
2022-12-02T03:59:34.782Z,13.35
2022-12-02T04:07:32.096Z,13.32
2022-12-02T04:10:34.061Z,16.35
2022-12-02T04:13:21.958Z,15.10
2022-12-02T04:16:09.732Z,14.75
2022-12-02T04:18:57.338Z,13.10
2022-12-02T04:21:45.047Z,13.93
2022-12-02T04:24:32.791Z,8.98
2022-12-02T04:27:20.443Z,13.48
2022-12-02T04:30:08.802Z,12.88
2022-12-02T04:32:56.549Z,12.95
2022-12-02T04:35:44.386Z,14.65
2022-12-02T04:38:32.047Z,13.05
2022-12-02T04:41:19.797Z,14.07
2022-12-02T04:44:07.422Z,12.18
2022-12-02T04:46:55.217Z,13.32
2022-12-02T04:49:42.864Z,15.30
2022-12-02T04:52:30.498Z,15.00
2022-12-02T04:55:18.146Z,14.55
2022-12-02T04:58:05.839Z,17.55
2022-12-02T05:00:53.635Z,12.98
2022-12-02T05:03:41.429Z,12.38
2022-12-02T05:06:29.067Z,12.27
2022-12-02T05:09:16.705Z,16.58
2022-12-02T05:12:04.360Z,22.05
2022-12-02T05:14:52.988Z,15.32
2022-12-02T05:17:42.455Z,15.02
2022-12-02T05:20:30.308Z,14.30
2022-12-02T05:23:17.940Z,13.13
2022-12-02T05:26:05.602Z,12.95
2022-12-02T05:28:53.325Z,15.40
2022-12-02T05:31:40.970Z,11.45
2022-12-02T05:34:28.636Z,11.98
2022-12-02T05:37:16.294Z,14.27
2022-12-02T05:40:04.701Z,12.85
2022-12-02T05:42:52.385Z,13.48
2022-12-02T05:45:40.097Z,12.82
2022-12-02T05:48:28.016Z,13.05
2022-12-02T05:51:18.390Z,11.95
2022-12-02T05:54:06.577Z,12.32
2022-12-02T05:56:56.332Z,11.57
2022-12-02T05:59:44.004Z,13.18
2022-12-02T06:02:41.020Z,10.85
2022-12-02T06:05:37.973Z,10.85
2022-12-02T06:08:32.848Z,15.07
2022-12-02T06:11:34.660Z,10.18
2022-12-02T06:14:24.806Z,12.48
2022-12-02T06:17:16.487Z,9.18
2022-12-02T06:20:05.666Z,13.13
2022-12-02T06:22:53.453Z,9.68
2022-12-02T06:25:41.686Z,11.73
2022-12-02T06:28:32.296Z,10.70
2022-12-02T06:31:31.598Z,11.45
2022-12-02T06:34:34.166Z,9.35
2022-12-02T06:37:22.926Z,10.85
2022-12-02T06:40:28.951Z,11.77
2022-12-02T06:43:26.304Z,10.77
2022-12-02T06:46:20.320Z,12.07
2022-12-02T06:49:21.274Z,10.43
2022-12-02T06:52:21.765Z,11.77
2022-12-02T06:55:36.563Z,13.40
2022-12-02T06:58:51.838Z,10.63
2022-12-02T07:01:42.904Z,10.77
2022-12-02T07:04:47.822Z,11.80
2022-12-02T07:07:36.562Z,10.88
2022-12-02T07:10:27.634Z,11.07
2022-12-02T07:13:18.752Z,12.20
2022-12-02T07:16:35.133Z,8.88
2022-12-02T07:19:27.245Z,10.37
2022-12-02T07:22:22.185Z,11.23
2022-12-02T07:25:09.769Z,9.57
2022-12-02T07:27:57.485Z,9.60
2022-12-02T07:30:54.824Z,10.52
2022-12-02T07:33:42.550Z,10.73
2022-12-02T07:36:30.268Z,9.18
2022-12-02T07:39:18.377Z,11.38
2022-12-02T07:42:06.282Z,9.10
2022-12-02T07:44:54.146Z,10.18
2022-12-02T07:47:42.106Z,9.73
2022-12-02T07:50:29.830Z,8.65
2022-12-02T07:53:17.717Z,11.52
2022-12-02T07:56:05.769Z,10.50
2022-12-02T08:02:01.174Z,11.65
2022-12-02T08:04:54.601Z,11.85
2022-12-02T08:07:42.888Z,6.50
2022-12-02T08:10:30.669Z,10.90
2022-12-02T08:13:18.409Z,10.23
2022-12-02T08:16:06.568Z,9.95
2022-12-02T08:18:54.366Z,9.57
2022-12-02T08:21:42.222Z,11.15
2022-12-02T08:24:29.880Z,10.38
2022-12-02T08:27:17.490Z,11.45
2022-12-02T08:30:05.701Z,11.52
2022-12-02T08:32:53.321Z,11.45
2022-12-02T08:35:41.113Z,9.38
2022-12-02T08:38:28.915Z,11.32
2022-12-02T08:41:16.853Z,9.45
2022-12-02T08:44:05.577Z,10.02
2022-12-02T08:46:54.683Z,11.35
2022-12-02T08:49:42.519Z,10.68
2022-12-02T08:52:30.214Z,10.10
2022-12-02T08:55:18.047Z,10.32
2022-12-02T08:58:05.947Z,12.50
2022-12-02T09:00:53.548Z,10.65
2022-12-02T09:03:41.270Z,9.38
2022-12-02T09:06:32.995Z,11.40
2022-12-02T09:09:23.515Z,11.98
2022-12-02T09:12:11.097Z,11.85
2022-12-02T09:15:09.092Z,9.23
2022-12-02T09:18:18.915Z,15.00
2022-12-02T09:21:07.446Z,12.82
2022-12-02T09:23:56.097Z,9.98
2022-12-02T09:26:45.074Z,10.98
2022-12-02T09:30:08.519Z,11.35
2022-12-02T09:34:38.211Z,11.05
2022-12-02T09:38:29.227Z,11.40
2022-12-02T09:46:31.993Z,11.10
2022-12-02T09:53:22.630Z,9.60
2022-12-02T09:56:26.185Z,10.50
2022-12-02T09:59:17.980Z,9.63
2022-12-02T10:02:16.188Z,10.63
2022-12-02T10:05:13.654Z,10.43
2022-12-02T10:08:08.980Z,9.68
2022-12-02T10:11:06.440Z,10.55
2022-12-02T10:14:07.153Z,9.35
2022-12-02T10:21:00.344Z,9.15
2022-12-02T10:24:13.621Z,9.20
2022-12-02T10:27:32.360Z,7.90
2022-12-02T10:30:28.770Z,10.18
2022-12-02T10:36:09.558Z,7.88
2022-12-02T10:39:22.353Z,8.20
2022-12-02T10:42:51.748Z,9.38
2022-12-02T10:45:57.007Z,8.77
2022-12-02T10:53:34.210Z,8.07
2022-12-02T10:56:29.110Z,9.40
2022-12-02T10:59:30.297Z,10.38
2022-12-02T11:02:49.690Z,9.18
2022-12-02T11:05:41.170Z,7.78
2022-12-02T11:18:42.298Z,6.63
2022-12-02T11:44:14.866Z,7.88
2022-12-02T11:47:03.892Z,8.30
2022-12-02T11:53:20.062Z,8.25
2022-12-02T11:56:12.073Z,6.93
2022-12-02T11:59:00.176Z,7.85
2022-12-02T12:01:48.979Z,7.35
2022-12-02T12:04:36.970Z,9.02
2022-12-02T12:07:24.639Z,8.90
2022-12-02T12:10:35.226Z,11.50
2022-12-02T12:13:24.483Z,11.60
2022-12-02T12:16:23.377Z,9.20
2022-12-02T12:19:13.993Z,9.35
2022-12-02T12:22:01.556Z,9.18
2022-12-02T12:24:49.573Z,10.60
2022-12-02T12:27:38.143Z,7.95
2022-12-02T12:30:26.379Z,9.02
2022-12-02T12:33:14.045Z,8.40
2022-12-02T12:36:01.714Z,10.05
2022-12-02T12:38:49.374Z,8.55
2022-12-02T12:44:45.477Z,9.95
2022-12-02T12:47:33.071Z,11.57
2022-12-02T12:50:23.517Z,11.07
2022-12-02T12:53:13.569Z,10.50
2022-12-02T12:56:01.464Z,8.90
2022-12-02T12:58:49.309Z,10.45
2022-12-02T13:01:37.788Z,10.85
2022-12-02T13:04:25.860Z,9.55
2022-12-02T13:07:13.971Z,11.45
2022-12-02T13:10:01.956Z,13.52
2022-12-02T13:12:50.823Z,10.48
2022-12-02T13:15:38.433Z,15.55
2022-12-02T13:18:26.197Z,11.15
2022-12-02T13:21:13.766Z,12.55
2022-12-02T13:24:03.447Z,11.88
2022-12-02T13:26:51.212Z,9.65
2022-12-02T13:29:38.956Z,11.13
2022-12-02T13:32:26.610Z,11.20
2022-12-02T13:35:21.904Z,10.70
2022-12-02T13:38:10.140Z,11.23
2022-12-02T13:40:57.746Z,10.00
2022-12-02T13:43:45.342Z,13.05
2022-12-02T13:46:33.090Z,12.82
2022-12-02T13:49:20.829Z,12.25
2022-12-02T13:52:08.561Z,11.18
2022-12-02T13:54:56.279Z,12.07
2022-12-02T13:57:43.857Z,9.75
2022-12-02T14:00:31.457Z,12.95
2022-12-02T14:03:19.141Z,11.60
2022-12-02T14:06:07.133Z,11.45
2022-12-02T14:08:54.850Z,9.95
2022-12-02T14:11:42.925Z,13.07
2022-12-02T14:14:30.480Z,14.35
2022-12-02T14:17:18.137Z,12.02
2022-12-02T14:20:06.455Z,11.48
2022-12-02T14:22:54.135Z,10.55
2022-12-02T14:25:41.732Z,12.18
2022-12-02T14:28:29.490Z,10.80
2022-12-02T14:31:25.423Z,11.23
2022-12-02T14:34:14.308Z,11.35
2022-12-02T14:37:02.066Z,8.23
2022-12-02T14:39:49.672Z,12.45
2022-12-02T14:42:37.348Z,10.02
2022-12-02T14:45:24.959Z,11.55
2022-12-02T14:48:12.663Z,8.48
2022-12-02T14:51:00.415Z,15.60
2022-12-02T14:53:49.734Z,10.15
2022-12-02T14:56:37.629Z,11.32
2022-12-02T14:59:25.222Z,9.68
2022-12-02T15:02:14.801Z,11.82
2022-12-02T15:05:02.615Z,10.20
2022-12-02T15:07:50.945Z,10.32
2022-12-02T15:10:41.828Z,11.07
2022-12-02T15:13:29.590Z,11.30
2022-12-02T15:16:17.166Z,11.93
2022-12-02T15:19:04.949Z,11.52
2022-12-02T15:21:52.623Z,10.25
2022-12-02T15:24:40.253Z,14.05
2022-12-02T15:27:27.801Z,15.43
2022-12-02T15:30:15.641Z,15.15
2022-12-02T15:33:03.504Z,15.68
2022-12-02T15:35:51.805Z,13.30
2022-12-02T15:38:39.596Z,11.20
2022-12-02T15:41:27.185Z,19.15
2022-12-02T15:44:14.776Z,13.93
2022-12-02T15:47:02.440Z,12.95
2022-12-02T15:49:50.134Z,12.13
2022-12-02T15:52:37.742Z,13.65
2022-12-02T15:55:25.541Z,13.10
2022-12-02T15:58:13.107Z,14.05
2022-12-02T16:01:00.840Z,12.77
2022-12-02T16:03:48.466Z,13.48
2022-12-02T16:06:36.017Z,14.23
2022-12-02T16:09:23.717Z,14.30
2022-12-02T16:12:11.422Z,12.55
2022-12-02T16:14:59.550Z,12.77
2022-12-02T16:17:47.308Z,11.52
2022-12-02T16:20:35.066Z,11.48
2022-12-02T16:23:23.285Z,11.50
2022-12-02T16:26:12.358Z,11.32
2022-12-02T16:28:59.924Z,12.77
2022-12-02T16:31:47.620Z,11.05
2022-12-02T16:34:35.927Z,11.32
2022-12-02T16:37:23.575Z,9.02
2022-12-02T16:40:11.998Z,10.68
2022-12-02T16:43:04.485Z,10.02
2022-12-02T16:45:52.183Z,11.05
2022-12-02T16:48:39.849Z,13.65
2022-12-02T16:51:27.438Z,10.82
2022-12-02T16:54:15.090Z,9.25
2022-12-02T16:57:02.708Z,8.50
2022-12-02T16:59:50.327Z,8.98
2022-12-02T17:02:38.020Z,10.73
2022-12-02T17:05:25.735Z,11.27
2022-12-02T17:08:13.527Z,13.77
2022-12-02T17:11:01.233Z,12.15
2022-12-02T17:13:49.018Z,11.00
2022-12-02T17:16:36.791Z,9.32
2022-12-02T17:19:24.408Z,10.68
2022-12-02T17:22:13.343Z,11.30
2022-12-02T17:25:00.971Z,9.73
2022-12-02T17:27:48.603Z,11.05
2022-12-02T17:30:36.373Z,12.88
2022-12-02T17:33:24.056Z,11.70
2022-12-02T17:36:11.693Z,9.82
2022-12-02T17:38:59.330Z,8.75
2022-12-02T17:41:46.898Z,9.70
2022-12-02T17:44:34.499Z,9.35
2022-12-02T17:47:22.342Z,9.88
2022-12-02T17:50:13.672Z,11.30
2022-12-02T17:53:01.257Z,9.82
2022-12-02T17:55:49.009Z,8.50
2022-12-02T17:58:37.347Z,10.48
2022-12-02T18:01:25.064Z,11.60
2022-12-02T18:04:12.844Z,9.45
2022-12-02T18:07:03.088Z,13.52
2022-12-02T18:09:52.869Z,11.00
2022-12-02T18:12:40.485Z,12.32
2022-12-02T18:15:28.002Z,10.82
2022-12-02T18:18:15.704Z,10.73
2022-12-02T18:21:03.270Z,10.95
2022-12-02T18:23:50.864Z,11.93
2022-12-02T18:26:38.496Z,13.40
2022-12-02T18:29:26.119Z,9.90
2022-12-02T18:32:13.719Z,8.60
2022-12-02T18:35:01.336Z,12.07
2022-12-02T18:37:51.037Z,10.00
2022-12-02T18:40:38.765Z,12.27
2022-12-02T18:43:26.344Z,11.25
2022-12-02T18:46:14.327Z,11.40
2022-12-02T18:49:02.890Z,13.45
2022-12-02T18:51:50.601Z,9.60
2022-12-02T18:54:38.374Z,7.97
2022-12-02T18:57:26.242Z,11.10
2022-12-02T19:00:15.734Z,9.57
2022-12-02T19:03:03.658Z,9.30
2022-12-02T19:05:51.358Z,8.10
2022-12-02T19:08:39.047Z,10.98
2022-12-02T19:11:26.827Z,9.25
2022-12-02T19:14:14.575Z,11.85
2022-12-02T19:17:02.380Z,9.65
2022-12-02T19:19:50.166Z,9.02
2022-12-02T19:22:37.812Z,9.52
2022-12-02T19:25:28.608Z,11.85
2022-12-02T19:28:16.301Z,9.20
2022-12-02T19:31:04.158Z,10.55
2022-12-02T19:33:51.964Z,10.55
2022-12-02T19:36:39.867Z,9.05
2022-12-02T19:39:27.749Z,7.97
2022-12-02T19:42:16.040Z,9.40
2022-12-02T19:45:04.510Z,9.45
2022-12-02T19:47:53.151Z,8.25
2022-12-02T19:50:40.992Z,8.82
2022-12-02T19:53:28.858Z,6.57
2022-12-02T19:56:16.887Z,7.28
2022-12-02T19:59:04.872Z,7.45
2022-12-02T20:01:52.885Z,9.75
2022-12-02T20:04:42.312Z,7.50
2022-12-02T20:07:30.559Z,8.18
2022-12-02T20:10:48.503Z,9.85
2022-12-02T20:13:37.492Z,10.27
2022-12-02T20:16:25.460Z,7.65
2022-12-02T20:19:13.483Z,9.00
2022-12-02T20:22:01.518Z,9.10
2022-12-02T20:24:49.604Z,9.90
2022-12-02T20:27:37.939Z,11.02
2022-12-02T20:30:26.084Z,7.18
2022-12-02T20:33:13.982Z,8.25
2022-12-02T20:36:02.047Z,9.40
2022-12-02T20:38:50.148Z,7.32
2022-12-02T20:41:38.005Z,8.43
2022-12-02T20:44:28.603Z,7.03
2022-12-02T20:47:16.567Z,7.90
2022-12-02T20:50:05.139Z,6.97
2022-12-02T20:52:54.157Z,7.88
2022-12-02T20:55:42.319Z,5.25
2022-12-02T20:58:30.258Z,9.65
2022-12-02T21:01:18.620Z,8.90
2022-12-02T21:04:06.449Z,10.02
2022-12-02T21:06:54.765Z,7.68
2022-12-02T21:09:43.112Z,7.45
2022-12-02T21:12:31.343Z,6.93
2022-12-02T21:15:19.363Z,7.85
2022-12-02T21:18:07.225Z,7.97
2022-12-02T21:20:55.306Z,7.68
2022-12-02T21:23:43.083Z,9.02
2022-12-02T21:26:31.334Z,4.97
2022-12-02T21:29:20.550Z,7.40
2022-12-02T21:32:08.509Z,5.63
2022-12-02T21:34:56.472Z,6.63
2022-12-02T21:37:44.374Z,7.25
2022-12-02T21:40:32.162Z,5.40
2022-12-02T21:43:19.947Z,7.50
2022-12-02T21:46:10.545Z,7.28
2022-12-02T21:48:58.502Z,7.45
2022-12-02T21:51:46.293Z,7.43
2022-12-02T21:54:34.704Z,7.13
2022-12-02T21:57:22.558Z,6.82
2022-12-02T22:00:12.826Z,6.10
2022-12-02T22:03:02.785Z,6.72
2022-12-02T22:05:50.565Z,7.80
2022-12-02T22:08:39.692Z,6.60
2022-12-02T22:11:27.834Z,7.20
2022-12-02T22:14:15.651Z,6.72
2022-12-02T22:17:04.165Z,6.88
2022-12-02T22:19:51.986Z,7.15
2022-12-02T22:22:39.993Z,5.63
2022-12-02T22:25:28.288Z,8.48
2022-12-02T22:28:18.855Z,5.30
2022-12-02T22:31:06.679Z,6.97
2022-12-02T22:33:54.603Z,6.07
2022-12-02T22:36:42.852Z,6.25
2022-12-02T22:39:30.617Z,6.38
2022-12-02T22:42:18.587Z,6.72
2022-12-02T22:45:07.685Z,8.68
2022-12-02T22:47:55.770Z,5.88
2022-12-02T22:50:43.659Z,8.50
2022-12-02T22:53:31.471Z,8.50
2022-12-02T22:56:19.413Z,5.40
2022-12-02T22:59:07.434Z,6.00
2022-12-02T23:01:55.414Z,4.90
2022-12-02T23:04:43.264Z,8.05
2022-12-02T23:07:31.187Z,6.28
2022-12-02T23:10:19.203Z,8.18
2022-12-02T23:13:12.380Z,6.85
2022-12-02T23:16:02.719Z,4.13
2022-12-02T23:18:50.653Z,5.38
2022-12-02T23:21:38.503Z,6.13
2022-12-02T23:24:26.249Z,7.57
2022-12-02T23:27:14.153Z,7.63
2022-12-02T23:30:02.251Z,6.80
2022-12-02T23:32:52.717Z,6.63
2022-12-02T23:35:40.635Z,7.55
2022-12-02T23:38:28.559Z,8.23
2022-12-02T23:41:16.340Z,5.82
2022-12-02T23:44:04.432Z,7.70
2022-12-02T23:46:52.202Z,5.28
2022-12-02T23:49:39.962Z,6.93
2022-12-02T23:52:27.594Z,8.50
2022-12-02T23:55:15.510Z,6.18
2022-12-02T23:58:03.558Z,8.00
